x

Gulf Of Maine - 78 Nm East Of Portsmouth, Nh (44005) Wave Buoy

10:50 - Mon 23rd Jan 2017 All times are EST. -5 hours from GMT.

  • Sig Wave height 12.8ft
  • Swell Direction
  • Peak Period 8s
  • Average Period 7s
  • Wind
    34mph, 43mph gusts
  • Sea Temp 46°f
  • Air Temp 38°f
  • Sea Pressure 1012.2mb
  • Gulf Of Maine - 78 Nm East Of Portsmouth, Nh
  • Gulf Of Maine - 78 Nm East Of Portsmouth, Nh

More Historic Weather Station data

Upgrade to MSW Pro to gain access to the past 30 days of data for over 8000 Wavebouys and Weather Stations around the globe.

Join Pro

Comparision Forecast

View Surf forecast
   
lun. 01/23 10:50 13ft 8s 7s 34 43 mph 1012.2mb 46f 38f
9:50 12ft 8s 7s 34 40 mph 1013.6mb 45f 37f
8:50 11.5ft 8s 6s 34 40 mph 1013.7mb 45f 37f
7:50 10ft 7s 6s 34 40 mph 1014.3mb 45f 37f
6:50 9.5ft 7s 6s 31 36 mph 1015.4mb 45f 37f
5:50 9.5ft 7s 6s 29 36 mph 1016.4mb 45f 36f
4:50 9ft 7s 6s 27 34 mph 1017.1mb 45f 35f
3:50 8.5ft 7s 6s 27 34 mph 1017mb 46f 34f
2:50 8ft 7s 6s 27 31 mph 1016.6mb 46f 35f
1:50 8ft 7s 6s 22 27 mph 1017.5mb 46f 35f
12:50 7.5ft 6s 6s 25 29 mph 1017.5mb 46f 35f
11:50 7.5ft 6s 6s 25 29 mph 1017.9mb 46f 36f
10:50 7ft 7s 5s 25 29 mph 1019.3mb 45f 35f
9:50 8ft 7s 5s 29 36 mph 1018.4mb 45f 37f
7:50 8ft 7s 6s 27 31 mph 1018mb 45f 36f
6:50 7ft 7s 5s 29 34 mph 1016.9mb 46f 36f
5:50 7ft 6s 5s 29 36 mph 1016.1mb 45f 36f
4:50 7ft 7s 5s 29 36 mph 1016.8mb 45f 35f
3:50 6.5ft 6s 5s 25 31 mph 1017.3mb 46f 36f
2:50 6.5ft 6s 5s 22 31 mph 1016.9mb 46f 37f
1:50 6.5ft 6s 5s 25 27 mph 1016.9mb 46f 36f
12:50 6.5ft 6s 6s 22 31 mph 1016.2mb 46f 37f
dim. 01/22 11:50 7ft 6s 6s 25 29 mph 1016.1mb 46f 37f
10:50 6ft 6s 5s 25 29 mph 1016.3mb 46f 38f
9:50 6ft 11s 5s 22 27 mph 1015.7mb 46f 39f
8:50 6ft 12s 5s 22 29 mph 1014.9mb 46f 38f
7:50 6ft 13s 5s 20 25 mph 1014.7mb 46f 40f
6:50 6ft 5s 5s 22 27 mph 1014mb 46f 40f
5:50 5.5ft 12s 5s 22 27 mph 1013.4mb 46f 40f
4:50 5.5ft 13s 5s 25 27 mph 1012.8mb 46f 40f
3:50 5ft 13s 5s 22 27 mph 1012.4mb 46f 40f
2:50 5ft 14s 5s 20 25 mph 1011.7mb 46f 40f
1:50 5ft 13s 6s 18 22 mph 1011mb 46f 40f
12:50 5ft 14s 6s 20 25 mph 1010.3mb 46f 39f
11:50 5.5ft 13s 6s 18 20 mph 1010.7mb 46f 38f
10:50 6ft 11s 6s 20 25 mph 1010.5mb 46f 38f
9:50 6ft 12s 6s 20 25 mph 1010.4mb 46f 39f
8:50 5ft 12s 7s 22 27 mph 1009.3mb 46f 40f
7:50 5ft 13s 9s 20 22 mph 1009.3mb 46f 42f
6:50 4.5ft 11s 8s 2 4 mph 1008.3mb 46f 44f
5:50 5ft 11s 9s 2 4 mph 1007.2mb 46f 44f
4:50 4ft 12s 8s 2 4 mph 1007.1mb 46f 44f
3:50 5ft 13s 9s 4 7 mph 1007mb 46f 44f
2:50 4.5ft 13s 8s 2 4 mph 1007.1mb 46f 44f
1:50 4.5ft 13s 8s 4
mph
1007.5mb 46f 44f
12:50 5ft 13s 9s 4
mph
1007.1mb 46f 44f
sam. 01/21 11:50 5.5ft 13s 9s 4 7 mph 1006.9mb 46f 44f
10:50 5.5ft 12s 9s 2 4 mph 1007.5mb 46f 44f
9:50 5ft 11s 9s  -  2 mph 1007.4mb 46f 43f
8:50 5ft 12s 8s 4
mph
1007.3mb 46f 43f
7:50 6ft 12s 8s 4 7 mph 1007.3mb 46f 43f
6:50 5ft 11s 8s 9 11 mph 1007.3mb 46f 43f
5:50 4.5ft 11s 7s 9 13 mph 1006.9mb 46f 43f
4:50 4.5ft 11s 7s 13 16 mph 1006.5mb 46f 42f
3:50 5ft 12s 7s 11 13 mph 1006.2mb 46f 43f
2:50 5.5ft 12s 7s 11 13 mph 1006.5mb 46f 44f
1:50 5.5ft 11s 7s 13 16 mph 1006.4mb 46f 43f
12:50 5ft 11s 6s 13 16 mph 1006.8mb 46f 43f
11:50 6ft 11s 6s 13 16 mph 1007.7mb 46f 43f
10:50 6ft 11s 7s 16 20 mph 1009mb 46f 42f
9:50 5.5ft 11s 7s 20 22 mph 1010.1mb 46f 42f
8:50 5ft 10s 7s 16 18 mph 1010mb 46f 42f
7:50 5ft 11s 7s 16 18 mph 1010.3mb 46f 42f
6:50 5ft 10s 7s 16 18 mph 1010.3mb 46f 42f
5:50 4.5ft 11s 7s 13 18 mph 1010.8mb 46f 42f
4:50 4ft 11s 6s 13 16 mph 1011.1mb 46f 41f
3:50 4.5ft 11s 8s 13 16 mph 1011.8mb 46f 41f
2:50 3.5ft 11s 7s 4 7 mph 1012.8mb 46f 40f
1:50 3.5ft 11s 8s 11 16 mph 1012.9mb 46f 40f
12:50 4ft 10s 8s 9 13 mph 1013mb 46f 39f
ven. 01/20 11:50 4.5ft 11s 8s 9 11 mph 1013.4mb 46f 40f
10:50 4.5ft 9s 8s 7 9 mph 1014.2mb 46f 40f
9:50 4.5ft 10s 8s 7 11 mph 1014.2mb 46f 40f
8:50 4.5ft 10s 7s 7 9 mph 1014.5mb 46f 40f
7:50 4.5ft 10s 8s 4 7 mph 1014.6mb 46f 40f
6:50 4.5ft 10s 8s  -  2 mph 1014.5mb 46f 40f
5:50 3.5ft 10s 7s 2 4 mph 1014.8mb 46f 40f
4:50 4.5ft 10s 7s 2 4 mph 1014.7mb 46f 40f
3:50 3.5ft 11s 6s  -  4 mph 1014.8mb 46f 40f
2:50 4ft 10s 6s  -  4 mph 1014.6mb 46f 40f
1:50 4.5ft 11s 6s  -  2 mph 1015mb 46f 41f
12:50 4.5ft 11s 6s 2 7 mph 1015.3mb 46f 41f
11:50 5ft 11s 7s 7 9 mph 1015.8mb 46f 41f
10:50 5.5ft 11s 7s 11 13 mph 1016.4mb 46f 41f
9:50 5.5ft 11s 7s 11 16 mph 1016.4mb 46f 44f
8:50 5.5ft 11s 7s 13 18 mph 1016.3mb 46f 42f
7:50 6ft 10s 7s 11 13 mph 1016.2mb 46f 41f
6:50 6ft 10s 7s 11 13 mph 1016.2mb 46f 39f
5:50 6ft 11s 6s 11 16 mph 1015.6mb 46f 38f